sensor_id;sensor_type;location;lat;lon;timestamp;temperature;humidity
18932;DHT22;9598;50.954;3.112;2022-07-29T00:01:58;21.10;99.90
18932;DHT22;9598;50.954;3.112;2022-07-29T00:07:00;21.10;99.90
18932;DHT22;9598;50.954;3.112;2022-07-29T00:12:05;21.00;99.90
18932;DHT22;9598;50.954;3.112;2022-07-29T00:17:07;21.00;99.90
18932;DHT22;9598;50.954;3.112;2022-07-29T00:22:09;21.10;99.90
18932;DHT22;9598;50.954;3.112;2022-07-29T00:27:12;21.00;99.90
18932;DHT22;9598;50.954;3.112;2022-07-29T00:32:14;21.00;99.90
18932;DHT22;9598;50.954;3.112;2022-07-29T00:37:16;20.90;99.90
18932;DHT22;9598;50.954;3.112;2022-07-29T00:42:20;20.90;99.90
18932;DHT22;9598;50.954;3.112;2022-07-29T00:47:22;20.90;99.90
18932;DHT22;9598;50.954;3.112;2022-07-29T00:52:25;20.80;99.90
18932;DHT22;9598;50.954;3.112;2022-07-29T00:57:28;20.80;99.90
18932;DHT22;9598;50.954;3.112;2022-07-29T01:02:31;20.80;99.90
18932;DHT22;9598;50.954;3.112;2022-07-29T01:07:34;20.70;99.90
18932;DHT22;9598;50.954;3.112;2022-07-29T01:12:39;20.60;99.90
18932;DHT22;9598;50.954;3.112;2022-07-29T01:17:45;20.60;99.90
18932;DHT22;9598;50.954;3.112;2022-07-29T01:23:07;20.60;99.90
18932;DHT22;9598;50.954;3.112;2022-07-29T01:28:44;20.60;99.90
18932;DHT22;9598;50.954;3.112;2022-07-29T01:33:53;20.50;99.90
18932;DHT22;9598;50.954;3.112;2022-07-29T01:39:01;20.40;99.90
18932;DHT22;9598;50.954;3.112;2022-07-29T01:44:12;20.40;99.90
18932;DHT22;9598;50.954;3.112;2022-07-29T01:49:17;20.30;99.90
18932;DHT22;9598;50.954;3.112;2022-07-29T01:54:24;20.30;99.90
18932;DHT22;9598;50.954;3.112;2022-07-29T01:59:29;20.20;99.90
18932;DHT22;9598;50.954;3.112;2022-07-29T02:04:32;20.10;99.90
18932;DHT22;9598;50.954;3.112;2022-07-29T02:09:37;20.10;99.90
18932;DHT22;9598;50.954;3.112;2022-07-29T02:14:46;20.00;99.90
18932;DHT22;9598;50.954;3.112;2022-07-29T02:19:49;19.90;99.90
18932;DHT22;9598;50.954;3.112;2022-07-29T02:24:53;19.80;99.90
18932;DHT22;9598;50.954;3.112;2022-07-29T02:29:57;19.80;99.90
18932;DHT22;9598;50.954;3.112;2022-07-29T02:35:03;19.70;99.90
18932;DHT22;9598;50.954;3.112;2022-07-29T02:40:11;19.70;99.90
18932;DHT22;9598;50.954;3.112;2022-07-29T02:45:15;19.60;99.90
18932;DHT22;9598;50.954;3.112;2022-07-29T02:50:21;19.60;99.90
18932;DHT22;9598;50.954;3.112;2022-07-29T02:55:26;19.50;99.90
18932;DHT22;9598;50.954;3.112;2022-07-29T03:00:37;19.40;99.90
18932;DHT22;9598;50.954;3.112;2022-07-29T03:05:39;19.30;99.90
18932;DHT22;9598;50.954;3.112;2022-07-29T03:10:44;19.20;99.90
18932;DHT22;9598;50.954;3.112;2022-07-29T03:15:49;19.20;99.90
18932;DHT22;9598;50.954;3.112;2022-07-29T03:20:51;19.20;99.90
18932;DHT22;9598;50.954;3.112;2022-07-29T03:25:54;19.10;99.90
18932;DHT22;9598;50.954;3.112;2022-07-29T03:30:58;19.00;99.90
18932;DHT22;9598;50.954;3.112;2022-07-29T03:36:00;18.90;99.90
18932;DHT22;9598;50.954;3.112;2022-07-29T03:41:07;18.90;99.90
18932;DHT22;9598;50.954;3.112;2022-07-29T03:46:13;18.80;99.90
18932;DHT22;9598;50.954;3.112;2022-07-29T03:51:15;18.70;99.90
18932;DHT22;9598;50.954;3.112;2022-07-29T03:56:20;18.60;99.90
18932;DHT22;9598;50.954;3.112;2022-07-29T04:01:24;18.60;99.90
18932;DHT22;9598;50.954;3.112;2022-07-29T04:06:27;18.50;99.90
18932;DHT22;9598;50.954;3.112;2022-07-29T04:11:29;18.40;99.90
18932;DHT22;9598;50.954;3.112;2022-07-29T04:16:33;18.40;99.90
18932;DHT22;9598;50.954;3.112;2022-07-29T04:21:37;18.30;99.90
18932;DHT22;9598;50.954;3.112;2022-07-29T04:26:40;18.30;99.90
18932;DHT22;9598;50.954;3.112;2022-07-29T04:31:43;18.30;99.90
18932;DHT22;9598;50.954;3.112;2022-07-29T04:36:46;18.20;99.90
18932;DHT22;9598;50.954;3.112;2022-07-29T04:41:48;18.20;99.90
18932;DHT22;9598;50.954;3.112;2022-07-29T04:46:52;18.20;99.90
18932;DHT22;9598;50.954;3.112;2022-07-29T04:51:54;18.10;99.90
18932;DHT22;9598;50.954;3.112;2022-07-29T04:56:56;18.10;99.90
18932;DHT22;9598;50.954;3.112;2022-07-29T05:01:59;18.10;99.90
18932;DHT22;9598;50.954;3.112;2022-07-29T05:07:02;18.10;99.90
18932;DHT22;9598;50.954;3.112;2022-07-29T05:12:04;18.20;99.90
18932;DHT22;9598;50.954;3.112;2022-07-29T05:17:08;18.20;99.90
18932;DHT22;9598;50.954;3.112;2022-07-29T05:22:10;18.30;99.90
18932;DHT22;9598;50.954;3.112;2022-07-29T05:27:12;18.40;99.90
18932;DHT22;9598;50.954;3.112;2022-07-29T05:32:16;18.40;99.90
18932;DHT22;9598;50.954;3.112;2022-07-29T05:37:18;18.50;99.90
18932;DHT22;9598;50.954;3.112;2022-07-29T05:42:20;18.60;99.90
18932;DHT22;9598;50.954;3.112;2022-07-29T05:47:24;18.70;99.90
18932;DHT22;9598;50.954;3.112;2022-07-29T05:52:26;18.70;99.90
18932;DHT22;9598;50.954;3.112;2022-07-29T05:57:28;18.70;99.90
18932;DHT22;9598;50.954;3.112;2022-07-29T06:02:32;18.80;99.90
18932;DHT22;9598;50.954;3.112;2022-07-29T06:07:34;18.80;99.90
18932;DHT22;9598;50.954;3.112;2022-07-29T06:12:37;18.80;99.90
18932;DHT22;9598;50.954;3.112;2022-07-29T06:17:40;18.90;99.90
18932;DHT22;9598;50.954;3.112;2022-07-29T06:22:42;19.00;99.90
18932;DHT22;9598;50.954;3.112;2022-07-29T06:27:44;19.10;99.90
18932;DHT22;9598;50.954;3.112;2022-07-29T06:32:48;19.20;99.90
18932;DHT22;9598;50.954;3.112;2022-07-29T06:37:50;19.30;99.90
18932;DHT22;9598;50.954;3.112;2022-07-29T06:42:52;19.40;99.90
18932;DHT22;9598;50.954;3.112;2022-07-29T06:47:56;19.60;99.90
18932;DHT22;9598;50.954;3.112;2022-07-29T06:52:58;19.80;99.90
18932;DHT22;9598;50.954;3.112;2022-07-29T06:58:00;19.90;99.90
18932;DHT22;9598;50.954;3.112;2022-07-29T07:03:03;20.20;99.90
18932;DHT22;9598;50.954;3.112;2022-07-29T07:08:06;20.40;99.90
18932;DHT22;9598;50.954;3.112;2022-07-29T07:13:09;20.60;99.90
18932;DHT22;9598;50.954;3.112;2022-07-29T07:18:12;20.80;99.90
18932;DHT22;9598;50.954;3.112;2022-07-29T07:23:14;21.00;99.90
18932;DHT22;9598;50.954;3.112;2022-07-29T07:28:16;21.30;99.90
18932;DHT22;9598;50.954;3.112;2022-07-29T07:33:20;21.40;99.90
18932;DHT22;9598;50.954;3.112;2022-07-29T07:38:22;21.60;99.90
18932;DHT22;9598;50.954;3.112;2022-07-29T07:43:24;21.90;99.90
18932;DHT22;9598;50.954;3.112;2022-07-29T07:48:28;22.20;99.90
18932;DHT22;9598;50.954;3.112;2022-07-29T07:53:30;22.40;99.90
18932;DHT22;9598;50.954;3.112;2022-07-29T07:58:33;22.70;99.90
18932;DHT22;9598;50.954;3.112;2022-07-29T08:03:37;22.90;99.90
18932;DHT22;9598;50.954;3.112;2022-07-29T08:08:40;23.10;99.90
18932;DHT22;9598;50.954;3.112;2022-07-29T08:13:42;23.20;99.90
18932;DHT22;9598;50.954;3.112;2022-07-29T08:18:46;23.30;99.90
18932;DHT22;9598;50.954;3.112;2022-07-29T08:23:48;23.40;99.90
18932;DHT22;9598;50.954;3.112;2022-07-29T08:28:53;23.60;99.90
18932;DHT22;9598;50.954;3.112;2022-07-29T08:33:56;23.60;99.90
18932;DHT22;9598;50.954;3.112;2022-07-29T08:39:01;23.90;99.90
18932;DHT22;9598;50.954;3.112;2022-07-29T08:44:04;24.20;99.90
18932;DHT22;9598;50.954;3.112;2022-07-29T08:49:07;24.60;99.90
18932;DHT22;9598;50.954;3.112;2022-07-29T08:54:10;24.70;99.90
18932;DHT22;9598;50.954;3.112;2022-07-29T08:59:13;24.70;99.90
18932;DHT22;9598;50.954;3.112;2022-07-29T09:04:18;24.70;99.90
18932;DHT22;9598;50.954;3.112;2022-07-29T09:09:20;24.90;99.90
18932;DHT22;9598;50.954;3.112;2022-07-29T09:14:23;25.20;99.90
18932;DHT22;9598;50.954;3.112;2022-07-29T09:19:28;25.40;99.90
18932;DHT22;9598;50.954;3.112;2022-07-29T09:24:39;25.50;99.90
18932;DHT22;9598;50.954;3.112;2022-07-29T09:29:41;25.30;99.90
18932;DHT22;9598;50.954;3.112;2022-07-29T09:34:45;25.20;99.90
18932;DHT22;9598;50.954;3.112;2022-07-29T09:39:47;25.30;99.90
18932;DHT22;9598;50.954;3.112;2022-07-29T09:44:50;25.50;99.90
18932;DHT22;9598;50.954;3.112;2022-07-29T09:49:55;25.80;99.90
18932;DHT22;9598;50.954;3.112;2022-07-29T09:55:09;26.00;99.90
18932;DHT22;9598;50.954;3.112;2022-07-29T10:00:13;26.30;99.90
18932;DHT22;9598;50.954;3.112;2022-07-29T10:05:20;26.40;99.90
18932;DHT22;9598;50.954;3.112;2022-07-29T10:10:23;26.60;99.90
18932;DHT22;9598;50.954;3.112;2022-07-29T10:15:27;26.60;98.70
18932;DHT22;9598;50.954;3.112;2022-07-29T10:20:31;26.60;99.40
18932;DHT22;9598;50.954;3.112;2022-07-29T10:25:34;26.80;97.90
18932;DHT22;9598;50.954;3.112;2022-07-29T10:30:37;27.00;98.20
18932;DHT22;9598;50.954;3.112;2022-07-29T10:36:02;27.20;99.90
18932;DHT22;9598;50.954;3.112;2022-07-29T10:41:16;27.40;97.30
18932;DHT22;9598;50.954;3.112;2022-07-29T10:46:35;27.40;97.10
18932;DHT22;9598;50.954;3.112;2022-07-29T10:51:59;27.30;98.10
18932;DHT22;9598;50.954;3.112;2022-07-29T10:57:14;27.30;97.30
18932;DHT22;9598;50.954;3.112;2022-07-29T11:02:42;27.30;97.00
18932;DHT22;9598;50.954;3.112;2022-07-29T11:08:25;27.20;97.20
18932;DHT22;9598;50.954;3.112;2022-07-29T11:13:47;27.30;96.10
18932;DHT22;9598;50.954;3.112;2022-07-29T11:19:19;27.60;96.60
18932;DHT22;9598;50.954;3.112;2022-07-29T11:24:25;27.90;97.00
18932;DHT22;9598;50.954;3.112;2022-07-29T11:29:31;27.90;96.70
18932;DHT22;9598;50.954;3.112;2022-07-29T11:34:33;28.10;96.10
18932;DHT22;9598;50.954;3.112;2022-07-29T11:39:40;28.10;95.80
18932;DHT22;9598;50.954;3.112;2022-07-29T11:44:55;28.20;95.10
18932;DHT22;9598;50.954;3.112;2022-07-29T11:50:00;28.20;96.00
18932;DHT22;9598;50.954;3.112;2022-07-29T11:55:05;27.90;94.90
18932;DHT22;9598;50.954;3.112;2022-07-29T12:00:09;27.90;95.40
18932;DHT22;9598;50.954;3.112;2022-07-29T12:05:12;27.80;95.60
18932;DHT22;9598;50.954;3.112;2022-07-29T12:10:16;27.90;95.80
18932;DHT22;9598;50.954;3.112;2022-07-29T12:15:19;28.10;96.10
18932;DHT22;9598;50.954;3.112;2022-07-29T12:20:26;28.50;95.50
18932;DHT22;9598;50.954;3.112;2022-07-29T12:25:33;28.60;96.10
18932;DHT22;9598;50.954;3.112;2022-07-29T12:30:38;28.70;94.80
18932;DHT22;9598;50.954;3.112;2022-07-29T12:35:42;28.50;94.60
18932;DHT22;9598;50.954;3.112;2022-07-29T12:40:49;28.50;95.90
18932;DHT22;9598;50.954;3.112;2022-07-29T12:45:54;28.70;94.90
18932;DHT22;9598;50.954;3.112;2022-07-29T12:50:58;28.80;94.90
18932;DHT22;9598;50.954;3.112;2022-07-29T12:56:03;28.80;94.80
18932;DHT22;9598;50.954;3.112;2022-07-29T13:01:07;28.80;94.90
18932;DHT22;9598;50.954;3.112;2022-07-29T13:06:32;29.00;94.90
18932;DHT22;9598;50.954;3.112;2022-07-29T13:11:37;29.10;93.80
18932;DHT22;9598;50.954;3.112;2022-07-29T13:17:03;29.20;93.00
18932;DHT22;9598;50.954;3.112;2022-07-29T13:22:05;29.30;92.90
18932;DHT22;9598;50.954;3.112;2022-07-29T13:27:09;29.30;92.90
18932;DHT22;9598;50.954;3.112;2022-07-29T13:32:11;29.20;93.50
18932;DHT22;9598;50.954;3.112;2022-07-29T13:37:14;29.20;94.10
18932;DHT22;9598;50.954;3.112;2022-07-29T13:42:18;29.10;92.60
18932;DHT22;9598;50.954;3.112;2022-07-29T13:47:21;29.00;93.50
18932;DHT22;9598;50.954;3.112;2022-07-29T13:52:23;28.70;93.00
18932;DHT22;9598;50.954;3.112;2022-07-29T13:57:27;28.90;94.00
18932;DHT22;9598;50.954;3.112;2022-07-29T14:02:29;28.80;93.80
18932;DHT22;9598;50.954;3.112;2022-07-29T14:07:31;28.70;93.00
18932;DHT22;9598;50.954;3.112;2022-07-29T14:12:35;28.70;93.30
18932;DHT22;9598;50.954;3.112;2022-07-29T14:17:37;28.50;93.60
18932;DHT22;9598;50.954;3.112;2022-07-29T14:22:39;28.50;92.90
18932;DHT22;9598;50.954;3.112;2022-07-29T14:27:44;28.70;92.70
18932;DHT22;9598;50.954;3.112;2022-07-29T14:32:46;28.50;93.00
18932;DHT22;9598;50.954;3.112;2022-07-29T14:37:48;28.60;94.10
18932;DHT22;9598;50.954;3.112;2022-07-29T14:42:52;28.60;93.60
18932;DHT22;9598;50.954;3.112;2022-07-29T14:47:54;28.50;94.20
18932;DHT22;9598;50.954;3.112;2022-07-29T14:52:56;28.50;94.10
18932;DHT22;9598;50.954;3.112;2022-07-29T14:58:00;28.40;94.00
18932;DHT22;9598;50.954;3.112;2022-07-29T15:03:02;28.30;93.80
18932;DHT22;9598;50.954;3.112;2022-07-29T15:08:04;28.20;94.50
18932;DHT22;9598;50.954;3.112;2022-07-29T15:13:10;28.10;94.00
18932;DHT22;9598;50.954;3.112;2022-07-29T15:18:12;28.10;94.30
18932;DHT22;9598;50.954;3.112;2022-07-29T15:23:14;28.10;93.60
18932;DHT22;9598;50.954;3.112;2022-07-29T15:28:17;28.00;93.20
18932;DHT22;9598;50.954;3.112;2022-07-29T15:33:19;28.00;94.10
18932;DHT22;9598;50.954;3.112;2022-07-29T15:38:22;28.00;93.70
18932;DHT22;9598;50.954;3.112;2022-07-29T15:43:25;27.90;93.90
18932;DHT22;9598;50.954;3.112;2022-07-29T15:48:28;27.80;93.40
18932;DHT22;9598;50.954;3.112;2022-07-29T15:53:30;27.70;93.10
18932;DHT22;9598;50.954;3.112;2022-07-29T15:58:33;27.70;93.10
18932;DHT22;9598;50.954;3.112;2022-07-29T16:03:35;27.70;92.60
18932;DHT22;9598;50.954;3.112;2022-07-29T16:08:38;27.60;93.00
18932;DHT22;9598;50.954;3.112;2022-07-29T16:13:41;27.50;92.80
18932;DHT22;9598;50.954;3.112;2022-07-29T16:18:44;27.30;93.40
18932;DHT22;9598;50.954;3.112;2022-07-29T16:23:46;27.10;93.90
18932;DHT22;9598;50.954;3.112;2022-07-29T16:28:49;27.00;93.80
18932;DHT22;9598;50.954;3.112;2022-07-29T16:33:51;26.90;95.30
18932;DHT22;9598;50.954;3.112;2022-07-29T16:38:53;26.80;96.90
18932;DHT22;9598;50.954;3.112;2022-07-29T16:43:57;26.60;96.90
18932;DHT22;9598;50.954;3.112;2022-07-29T16:48:59;26.40;95.90
18932;DHT22;9598;50.954;3.112;2022-07-29T16:54:01;26.40;95.20
18932;DHT22;9598;50.954;3.112;2022-07-29T16:59:05;26.30;95.90
18932;DHT22;9598;50.954;3.112;2022-07-29T17:04:07;26.30;95.40
18932;DHT22;9598;50.954;3.112;2022-07-29T17:09:10;26.10;94.80
18932;DHT22;9598;50.954;3.112;2022-07-29T17:14:16;26.10;94.50
18932;DHT22;9598;50.954;3.112;2022-07-29T17:19:18;26.00;95.70
18932;DHT22;9598;50.954;3.112;2022-07-29T17:24:20;26.00;96.20
18932;DHT22;9598;50.954;3.112;2022-07-29T17:29:24;25.90;95.00
18932;DHT22;9598;50.954;3.112;2022-07-29T17:34:26;25.80;95.40
18932;DHT22;9598;50.954;3.112;2022-07-29T17:39:28;25.60;95.70
18932;DHT22;9598;50.954;3.112;2022-07-29T17:44:37;25.50;95.00
18932;DHT22;9598;50.954;3.112;2022-07-29T17:49:39;25.50;96.20
18932;DHT22;9598;50.954;3.112;2022-07-29T17:54:41;25.40;96.70
18932;DHT22;9598;50.954;3.112;2022-07-29T17:59:45;25.30;96.40
18932;DHT22;9598;50.954;3.112;2022-07-29T18:04:47;25.20;95.90
18932;DHT22;9598;50.954;3.112;2022-07-29T18:09:49;25.10;96.40
18932;DHT22;9598;50.954;3.112;2022-07-29T18:14:53;25.00;96.10
18932;DHT22;9598;50.954;3.112;2022-07-29T18:19:55;24.80;96.40
18932;DHT22;9598;50.954;3.112;2022-07-29T18:24:57;24.70;97.80
18932;DHT22;9598;50.954;3.112;2022-07-29T18:30:01;24.60;99.10
18932;DHT22;9598;50.954;3.112;2022-07-29T18:35:03;24.50;99.90
18932;DHT22;9598;50.954;3.112;2022-07-29T18:40:07;24.40;99.90
18932;DHT22;9598;50.954;3.112;2022-07-29T18:45:11;24.30;99.90
18932;DHT22;9598;50.954;3.112;2022-07-29T18:50:14;24.20;99.90
18932;DHT22;9598;50.954;3.112;2022-07-29T18:55:16;24.10;99.90
18932;DHT22;9598;50.954;3.112;2022-07-29T19:00:20;23.90;99.90
18932;DHT22;9598;50.954;3.112;2022-07-29T19:05:23;23.80;99.90
18932;DHT22;9598;50.954;3.112;2022-07-29T19:10:25;23.70;99.90
18932;DHT22;9598;50.954;3.112;2022-07-29T19:15:29;23.60;99.90
18932;DHT22;9598;50.954;3.112;2022-07-29T19:20:31;23.50;99.90
18932;DHT22;9598;50.954;3.112;2022-07-29T19:25:34;23.50;99.90
18932;DHT22;9598;50.954;3.112;2022-07-29T19:30:38;23.40;99.90
18932;DHT22;9598;50.954;3.112;2022-07-29T19:35:41;23.40;99.90
18932;DHT22;9598;50.954;3.112;2022-07-29T19:40:43;23.30;99.90
18932;DHT22;9598;50.954;3.112;2022-07-29T19:45:46;23.30;99.90
18932;DHT22;9598;50.954;3.112;2022-07-29T19:50:48;23.30;99.90
18932;DHT22;9598;50.954;3.112;2022-07-29T19:55:50;23.20;99.90
18932;DHT22;9598;50.954;3.112;2022-07-29T20:00:54;23.00;99.90
18932;DHT22;9598;50.954;3.112;2022-07-29T20:05:56;22.90;99.90
18932;DHT22;9598;50.954;3.112;2022-07-29T20:10:59;22.80;99.90
18932;DHT22;9598;50.954;3.112;2022-07-29T20:16:03;22.70;99.90
18932;DHT22;9598;50.954;3.112;2022-07-29T20:21:07;22.60;99.90
18932;DHT22;9598;50.954;3.112;2022-07-29T20:26:09;22.50;99.90
18932;DHT22;9598;50.954;3.112;2022-07-29T20:31:13;22.40;99.90
18932;DHT22;9598;50.954;3.112;2022-07-29T20:36:16;22.30;99.90
18932;DHT22;9598;50.954;3.112;2022-07-29T20:41:18;22.20;99.90
18932;DHT22;9598;50.954;3.112;2022-07-29T20:46:21;22.10;99.90
18932;DHT22;9598;50.954;3.112;2022-07-29T20:51:23;22.00;99.90
18932;DHT22;9598;50.954;3.112;2022-07-29T20:56:26;21.90;99.90
18932;DHT22;9598;50.954;3.112;2022-07-29T21:01:29;22.00;99.90
18932;DHT22;9598;50.954;3.112;2022-07-29T21:06:31;22.00;99.90
18932;DHT22;9598;50.954;3.112;2022-07-29T21:11:34;22.00;99.90
18932;DHT22;9598;50.954;3.112;2022-07-29T21:16:37;22.00;99.90
18932;DHT22;9598;50.954;3.112;2022-07-29T21:21:39;22.00;99.90
18932;DHT22;9598;50.954;3.112;2022-07-29T21:26:41;21.90;99.90
18932;DHT22;9598;50.954;3.112;2022-07-29T21:31:46;21.80;99.90
18932;DHT22;9598;50.954;3.112;2022-07-29T21:36:48;21.80;99.90
18932;DHT22;9598;50.954;3.112;2022-07-29T21:41:50;21.80;99.90
18932;DHT22;9598;50.954;3.112;2022-07-29T21:46:54;21.80;99.90
18932;DHT22;9598;50.954;3.112;2022-07-29T21:51:56;21.70;99.90
18932;DHT22;9598;50.954;3.112;2022-07-29T21:56:58;21.50;99.90
18932;DHT22;9598;50.954;3.112;2022-07-29T22:02:01;21.50;99.90
18932;DHT22;9598;50.954;3.112;2022-07-29T22:07:04;21.50;99.90
18932;DHT22;9598;50.954;3.112;2022-07-29T22:12:06;21.40;99.90
18932;DHT22;9598;50.954;3.112;2022-07-29T22:17:09;21.40;99.90
18932;DHT22;9598;50.954;3.112;2022-07-29T22:22:11;21.40;99.90
18932;DHT22;9598;50.954;3.112;2022-07-29T22:27:13;21.30;99.90
18932;DHT22;9598;50.954;3.112;2022-07-29T22:32:17;21.30;99.90
18932;DHT22;9598;50.954;3.112;2022-07-29T22:37:19;21.20;99.90
18932;DHT22;9598;50.954;3.112;2022-07-29T22:42:23;21.20;99.90
18932;DHT22;9598;50.954;3.112;2022-07-29T22:47:26;21.20;99.90
18932;DHT22;9598;50.954;3.112;2022-07-29T22:52:28;21.10;99.90
18932;DHT22;9598;50.954;3.112;2022-07-29T22:57:30;21.00;99.90
18932;DHT22;9598;50.954;3.112;2022-07-29T23:02:34;21.00;99.90
18932;DHT22;9598;50.954;3.112;2022-07-29T23:07:37;21.00;99.90
18932;DHT22;9598;50.954;3.112;2022-07-29T23:12:39;20.90;99.90
18932;DHT22;9598;50.954;3.112;2022-07-29T23:17:42;20.80;99.90
18932;DHT22;9598;50.954;3.112;2022-07-29T23:22:44;20.70;99.90
18932;DHT22;9598;50.954;3.112;2022-07-29T23:27:46;20.70;99.90
18932;DHT22;9598;50.954;3.112;2022-07-29T23:32:50;20.60;99.90
18932;DHT22;9598;50.954;3.112;2022-07-29T23:37:52;20.60;99.90
18932;DHT22;9598;50.954;3.112;2022-07-29T23:42:54;20.50;99.90
18932;DHT22;9598;50.954;3.112;2022-07-29T23:47:57;20.40;99.90
18932;DHT22;9598;50.954;3.112;2022-07-29T23:52:59;20.30;99.90
18932;DHT22;9598;50.954;3.112;2022-07-29T23:58:01;20.30;99.90
